Time;durP1;ratioP1;P1;durP2;ratioP2;P2;SDS_P1;SDS_P2;PMS_P1;PMS_P2;Temp;Humidity;BMP_temperature;BMP_pressure;BME280_temperature;BME280_humidity;BME280_pressure;Samples;Min_cycle;Max_cycle;Signal;HPM_P1;HPM_P2
2022/03/02 00:01:48;;;;;;;27.33;16.80;;;6.90;58.50;;;;;;5033576;28;20022;-86
2022/03/02 00:04:14;;;;;;;26.05;16.67;;;6.90;58.30;;;;;;5033250;28;20079;-84
2022/03/02 00:06:40;;;;;;;28.10;17.67;;;6.90;58.70;;;;;;5034309;28;20029;-85
2022/03/02 00:09:06;;;;;;;24.65;16.17;;;6.90;58.90;;;;;;5032704;28;20093;-86
2022/03/02 00:11:32;;;;;;;23.98;16.90;;;6.90;58.80;;;;;;5034260;28;20021;-85
2022/03/02 00:14:00;;;;;;;22.98;16.15;;;6.90;59.40;;;;;;5034484;28;20051;-86
2022/03/02 00:16:28;;;;;;;25.67;16.50;;;6.90;59.50;;;;;;5034512;28;20029;-86
2022/03/02 00:18:57;;;;;;;29.67;17.17;;;6.90;59.50;;;;;;5032874;28;20041;-86
2022/03/02 00:21:24;;;;;;;28.17;16.07;;;6.90;59.10;;;;;;5034497;28;20033;-86
2022/03/02 00:23:49;;;;;;;31.10;17.40;;;6.90;59.80;;;;;;5033916;28;20021;-85
2022/03/02 00:26:16;;;;;;;30.73;17.38;;;6.90;58.50;;;;;;5034475;28;20029;-85
2022/03/02 00:28:42;;;;;;;27.27;18.23;;;6.80;59.40;;;;;;5033019;28;20048;-85
2022/03/02 00:31:08;;;;;;;28.55;18.23;;;6.80;59.30;;;;;;5033063;28;20037;-85
2022/03/02 00:33:34;;;;;;;28.88;18.35;;;6.70;59.60;;;;;;5032975;28;20025;-86
2022/03/02 00:36:01;;;;;;;25.25;15.93;;;6.70;59.30;;;;;;5034253;28;20028;-87
2022/03/02 00:38:26;;;;;;;32.28;18.20;;;6.70;59.00;;;;;;5033041;28;20516;-86
2022/03/02 00:40:52;;;;;;;25.10;16.58;;;6.80;58.80;;;;;;5032933;28;20120;-86
2022/03/02 00:43:18;;;;;;;28.67;17.98;;;6.80;58.30;;;;;;5034393;28;20093;-87
2022/03/02 00:45:44;;;;;;;30.80;17.48;;;6.90;58.10;;;;;;5033090;28;20167;-87
2022/03/02 00:48:10;;;;;;;30.95;18.70;;;6.90;58.20;;;;;;5033834;28;20050;-87
2022/03/02 00:50:36;;;;;;;30.45;19.02;;;6.80;58.70;;;;;;5032887;28;20033;-87
2022/03/02 00:53:05;;;;;;;28.15;18.42;;;6.80;58.80;;;;;;5032868;28;20116;-87
2022/03/02 00:55:33;;;;;;;26.77;17.95;;;6.80;59.00;;;;;;5032756;28;20113;-87
2022/03/02 00:57:59;;;;;;;30.67;19.25;;;6.70;59.60;;;;;;5033011;28;20041;-87
2022/03/02 01:00:25;;;;;;;31.02;19.05;;;6.50;59.60;;;;;;5033719;28;20026;-88
2022/03/02 01:02:51;;;;;;;29.77;18.77;;;6.60;60.20;;;;;;5034132;28;20096;-88
2022/03/02 01:05:17;;;;;;;25.83;18.25;;;6.60;59.00;;;;;;5036823;28;20112;-87
2022/03/02 01:07:43;;;;;;;32.88;18.95;;;6.70;58.70;;;;;;5038034;28;20025;-87
2022/03/02 01:10:10;;;;;;;39.47;19.75;;;6.80;58.00;;;;;;5037772;28;20045;-87
2022/03/02 01:12:36;;;;;;;31.25;20.73;;;6.60;59.00;;;;;;5036818;28;20537;-87
2022/03/02 01:15:04;;;;;;;29.83;19.63;;;6.40;59.10;;;;;;5038041;28;20017;-87
2022/03/02 01:17:30;;;;;;;30.77;18.83;;;6.40;57.80;;;;;;5036953;28;20033;-87
2022/03/02 01:19:56;;;;;;;39.85;23.73;;;6.50;59.10;;;;;;5038133;28;20052;-88
2022/03/02 01:22:22;;;;;;;30.35;20.98;;;6.40;58.20;;;;;;5036170;28;20481;-86
2022/03/02 01:24:48;;;;;;;30.98;19.95;;;6.40;57.90;;;;;;5036772;28;20029;-87
2022/03/02 01:27:14;;;;;;;33.97;20.45;;;6.40;57.50;;;;;;5037856;28;20100;-87
2022/03/02 01:29:40;;;;;;;32.80;18.75;;;6.50;57.50;;;;;;5037293;28;20034;-87
2022/03/02 01:32:09;;;;;;;29.40;17.65;;;6.40;58.00;;;;;;5038290;28;20025;-88
2022/03/02 01:34:35;;;;;;;30.08;19.38;;;6.40;59.00;;;;;;5036065;28;20531;-83
2022/03/02 01:37:01;;;;;;;29.08;17.52;;;6.40;59.70;;;;;;5035653;28;20075;-82
2022/03/02 01:39:27;;;;;;;24.77;16.27;;;6.40;59.30;;;;;;5035844;28;20124;-83
2022/03/02 01:41:53;;;;;;;26.52;17.25;;;6.40;59.70;;;;;;5037013;28;20402;-83
2022/03/02 01:44:19;;;;;;;23.73;15.73;;;6.50;59.60;;;;;;5035535;28;20037;-83
2022/03/02 01:46:45;;;;;;;27.45;16.77;;;6.50;58.50;;;;;;5035507;28;20032;-83
2022/03/02 01:49:11;;;;;;;28.35;18.63;;;6.50;58.70;;;;;;5036377;28;20049;-83
2022/03/02 01:51:38;;;;;;;26.52;16.88;;;6.40;59.50;;;;;;5034447;28;20448;-83
2022/03/02 01:54:04;;;;;;;26.27;16.23;;;6.30;59.50;;;;;;5035322;28;20557;-83
2022/03/02 01:56:31;;;;;;;24.73;15.63;;;6.30;60.40;;;;;;5036450;28;20030;-83
2022/03/02 01:58:57;;;;;;;26.33;17.70;;;6.30;60.50;;;;;;5035126;28;20039;-83
2022/03/02 02:01:23;;;;;;;23.58;16.23;;;6.20;60.70;;;;;;5036546;28;20021;-81
2022/03/02 02:03:49;;;;;;;26.40;17.17;;;6.00;61.30;;;;;;5032181;28;20537;-82
2022/03/02 02:06:15;;;;;;;26.30;17.40;;;5.90;61.80;;;;;;5041266;28;20038;-82
2022/03/02 02:08:42;;;;;;;29.40;18.77;;;5.90;62.50;;;;;;5016252;28;20068;-82
2022/03/02 02:11:10;;;;;;;26.40;17.33;;;5.80;63.00;;;;;;5015349;28;20022;-82
2022/03/02 02:13:36;;;;;;;31.30;19.20;;;5.70;63.40;;;;;;5016120;28;20363;-82
2022/03/02 02:16:04;;;;;;;24.42;16.38;;;5.50;64.20;;;;;;5015631;28;20030;-82
2022/03/02 02:18:31;;;;;;;24.23;15.95;;;5.30;65.00;;;;;;5016596;28;20087;-82
2022/03/02 02:21:07;;;;;;;23.15;16.35;;;5.50;65.00;;;;;;5016131;28;20026;-82
2022/03/02 02:23:34;;;;;;;42.95;16.25;;;5.50;64.40;;;;;;5016185;28;20473;-81
2022/03/02 02:26:00;;;;;;;27.73;15.93;;;5.60;64.60;;;;;;5029084;28;20033;-82
2022/03/02 02:28:28;;;;;;;22.20;15.63;;;5.70;64.70;;;;;;5035481;28;20060;-82
2022/03/02 02:30:55;;;;;;;25.60;15.75;;;5.80;64.00;;;;;;5035931;28;20026;-84
2022/03/02 02:33:22;;;;;;;27.02;16.75;;;5.70;64.30;;;;;;5035971;28;20032;-83
2022/03/02 02:35:49;;;;;;;24.58;15.15;;;5.60;65.10;;;;;;5034572;28;20029;-81
2022/03/02 02:38:16;;;;;;;23.48;15.40;;;5.70;64.50;;;;;;5034033;28;20116;-82
2022/03/02 02:40:43;;;;;;;26.33;15.32;;;5.80;64.70;;;;;;5035627;28;20029;-82
2022/03/02 02:43:09;;;;;;;28.33;15.82;;;5.80;64.90;;;;;;5035708;28;20033;-82
2022/03/02 02:45:35;;;;;;;24.48;15.80;;;5.90;64.00;;;;;;5035522;28;20100;-82
2022/03/02 02:48:00;;;;;;;22.42;14.93;;;5.90;64.10;;;;;;5034863;28;20100;-82
2022/03/02 02:50:29;;;;;;;29.67;16.80;;;6.00;64.40;;;;;;5034672;28;20496;-82
2022/03/02 02:52:57;;;;;;;25.40;16.65;;;5.80;65.50;;;;;;5033798;28;20040;-82
2022/03/02 02:55:27;;;;;;;27.55;17.27;;;5.50;67.10;;;;;;5035098;28;20021;-82
2022/03/02 02:57:54;;;;;;;31.33;18.45;;;5.40;67.10;;;;;;5034894;28;20041;-82
2022/03/02 03:00:21;;;;;;;30.40;18.73;;;5.20;68.20;;;;;;5034769;28;20358;-82
2022/03/02 03:02:49;;;;;;;27.63;19.33;;;5.10;68.60;;;;;;5035245;28;20105;-82
2022/03/02 03:05:18;;;;;;;25.90;18.15;;;4.90;69.20;;;;;;5035133;28;20066;-81
2022/03/02 03:07:45;;;;;;;35.42;20.30;;;4.80;69.60;;;;;;5035271;28;20026;-82
2022/03/02 03:10:12;;;;;;;30.25;19.42;;;4.70;69.80;;;;;;5034926;28;20425;-82
2022/03/02 03:12:39;;;;;;;27.60;16.15;;;4.60;70.50;;;;;;5033002;28;20492;-81
2022/03/02 03:15:09;;;;;;;26.52;17.98;;;4.70;70.40;;;;;;5016807;28;20030;-82
2022/03/02 03:17:35;;;;;;;29.25;17.30;;;4.80;70.20;;;;;;5033593;28;20022;-83
2022/03/02 03:20:02;;;;;;;27.33;16.20;;;4.90;69.80;;;;;;5034723;28;20063;-82
2022/03/02 03:22:28;;;;;;;27.38;17.92;;;5.00;69.60;;;;;;5034968;28;20040;-83
2022/03/02 03:24:54;;;;;;;27.33;16.70;;;5.10;69.50;;;;;;5033059;28;20374;-83
2022/03/02 03:27:20;;;;;;;29.45;16.77;;;5.10;69.20;;;;;;5034203;28;20029;-82
2022/03/02 03:29:45;;;;;;;29.13;18.35;;;5.20;68.60;;;;;;5033790;28;20056;-82
2022/03/02 03:32:11;;;;;;;26.95;17.65;;;5.20;69.80;;;;;;5033393;28;20448;-82
2022/03/02 03:34:37;;;;;;;24.77;16.67;;;5.00;70.00;;;;;;5034728;28;20029;-82
2022/03/02 03:37:03;;;;;;;26.27;17.13;;;5.10;70.30;;;;;;5033237;28;20025;-82
2022/03/02 03:39:29;;;;;;;25.33;15.25;;;5.20;69.00;;;;;;5033937;28;20113;-82
2022/03/02 03:41:57;;;;;;;25.48;17.58;;;5.20;69.70;;;;;;5032411;28;20030;-82
2022/03/02 03:44:23;;;;;;;24.95;17.08;;;5.30;69.60;;;;;;5034032;28;20036;-82
2022/03/02 03:46:49;;;;;;;31.15;18.05;;;5.10;69.70;;;;;;5033084;28;20418;-82
2022/03/02 03:49:15;;;;;;;29.65;19.33;;;4.70;70.70;;;;;;5034017;28;20129;-82
2022/03/02 03:51:41;;;;;;;26.17;16.75;;;4.50;72.00;;;;;;5034198;28;20022;-82
2022/03/02 03:54:08;;;;;;;25.25;16.73;;;4.50;72.30;;;;;;5034172;28;20405;-83
2022/03/02 03:56:34;;;;;;;29.75;17.65;;;4.60;71.70;;;;;;5033974;28;20013;-82
2022/03/02 03:59:00;;;;;;;29.58;18.77;;;4.80;70.70;;;;;;5034176;28;20056;-83
2022/03/02 04:01:26;;;;;;;30.08;20.20;;;4.60;70.80;;;;;;5033106;28;20030;-82
2022/03/02 04:03:52;;;;;;;28.38;18.65;;;4.40;71.50;;;;;;5034115;28;20135;-83
2022/03/02 04:06:18;;;;;;;25.13;17.23;;;4.50;71.40;;;;;;5034251;28;20465;-83
2022/03/02 04:08:45;;;;;;;27.73;16.95;;;4.70;70.80;;;;;;5032214;28;20041;-82
2022/03/02 04:11:10;;;;;;;26.70;18.05;;;4.80;69.70;;;;;;5034345;28;20037;-84
2022/03/02 04:13:36;;;;;;;27.50;17.67;;;4.90;68.90;;;;;;5034347;28;20029;-83
2022/03/02 04:16:03;;;;;;;28.13;18.50;;;5.00;68.50;;;;;;5034305;28;20096;-84
2022/03/02 04:18:29;;;;;;;23.55;17.40;;;5.00;68.70;;;;;;5032364;28;20462;-83
2022/03/02 04:20:54;;;;;;;29.05;18.80;;;4.90;69.00;;;;;;5031629;28;20025;-83
2022/03/02 04:23:22;;;;;;;24.92;17.85;;;4.80;68.90;;;;;;5033778;28;20045;-83
2022/03/02 04:25:48;;;;;;;28.73;18.15;;;4.80;68.80;;;;;;5033599;28;20017;-83
2022/03/02 04:28:14;;;;;;;28.05;18.88;;;4.90;68.50;;;;;;5034102;28;20088;-83
2022/03/02 04:30:40;;;;;;;28.08;18.13;;;4.70;69.10;;;;;;5033865;28;20068;-82
2022/03/02 04:33:06;;;;;;;23.23;17.48;;;4.70;68.30;;;;;;5032333;28;20033;-83
2022/03/02 04:35:32;;;;;;;26.92;18.42;;;4.70;68.70;;;;;;5033734;28;20079;-83
2022/03/02 04:37:58;;;;;;;26.42;17.90;;;4.60;69.70;;;;;;5033133;28;20056;-83
2022/03/02 04:40:24;;;;;;;32.78;19.48;;;4.70;69.10;;;;;;5031715;28;20021;-82
2022/03/02 04:42:50;;;;;;;30.00;19.42;;;4.80;68.30;;;;;;5033648;28;20026;-83
2022/03/02 04:45:16;;;;;;;32.50;20.80;;;4.90;67.90;;;;;;5033556;28;20619;-82
2022/03/02 04:47:42;;;;;;;34.05;21.42;;;5.00;67.40;;;;;;5033143;28;20045;-83
2022/03/02 04:50:11;;;;;;;32.13;20.50;;;4.90;67.50;;;;;;5033722;28;20119;-83
2022/03/02 04:52:37;;;;;;;28.98;20.40;;;4.90;67.50;;;;;;5033405;28;20033;-82
2022/03/02 04:55:07;;;;;;;31.45;20.00;;;4.90;67.00;;;;;;5031833;28;20026;-82
2022/03/02 04:57:43;;;;;;;32.15;19.75;;;4.90;66.90;;;;;;5032063;28;20049;-83
2022/03/02 05:00:21;;;;;;;27.30;17.88;;;4.80;67.60;;;;;;5031906;28;20098;-82
2022/03/02 05:02:46;;;;;;;26.42;17.67;;;4.80;67.10;;;;;;5031988;28;20475;-82
2022/03/02 05:05:15;;;;;;;33.42;19.45;;;4.80;66.40;;;;;;5033254;28;20104;-82
2022/03/02 05:07:42;;;;;;;30.48;18.40;;;4.80;67.10;;;;;;5032627;28;20032;-82
2022/03/02 05:10:09;;;;;;;28.30;18.88;;;4.60;67.10;;;;;;5033317;28;20095;-83
2022/03/02 05:12:35;;;;;;;27.05;17.23;;;4.70;66.40;;;;;;5031556;28;20026;-83
2022/03/02 05:15:02;;;;;;;24.00;16.48;;;4.80;66.00;;;;;;5033224;28;20053;-83
2022/03/02 05:17:28;;;;;;;24.70;17.55;;;4.90;66.10;;;;;;5033260;28;20049;-84
2022/03/02 05:19:54;;;;;;;28.73;17.65;;;4.80;66.90;;;;;;5033267;28;20084;-84
2022/03/02 05:22:20;;;;;;;25.02;17.23;;;4.80;66.90;;;;;;5032078;28;20466;-84
2022/03/02 05:24:45;;;;;;;27.30;17.08;;;4.80;66.30;;;;;;5033839;28;20065;-83
2022/03/02 05:27:11;;;;;;;23.48;15.63;;;4.70;66.50;;;;;;5032237;28;20571;-83
2022/03/02 05:29:37;;;;;;;23.55;15.73;;;4.70;66.10;;;;;;5032387;28;20041;-82
2022/03/02 05:32:04;;;;;;;26.30;16.50;;;4.80;66.20;;;;;;5031702;28;20357;-84
2022/03/02 05:34:29;;;;;;;22.17;15.13;;;4.90;66.00;;;;;;5033142;28;20044;-84
2022/03/02 05:36:55;;;;;;;26.15;15.85;;;4.90;65.70;;;;;;5032821;28;20465;-83
2022/03/02 05:39:23;;;;;;;25.08;15.88;;;4.80;65.50;;;;;;5033285;28;20029;-84
2022/03/02 05:41:49;;;;;;;22.52;15.88;;;4.80;65.90;;;;;;5033621;28;20033;-82
2022/03/02 05:44:15;;;;;;;20.88;14.13;;;4.70;66.20;;;;;;5031524;28;20026;-83
2022/03/02 05:46:40;;;;;;;23.48;15.63;;;4.70;66.20;;;;;;5033179;28;20045;-83
2022/03/02 05:49:08;;;;;;;22.92;14.38;;;4.60;65.80;;;;;;5032369;28;20041;-82
2022/03/02 05:51:35;;;;;;;26.38;14.98;;;4.50;65.20;;;;;;5032436;28;20039;-83
2022/03/02 05:54:01;;;;;;;21.23;12.43;;;4.70;64.90;;;;;;5036534;28;20061;-82
2022/03/02 05:56:26;;;;;;;19.38;13.38;;;4.80;64.00;;;;;;5036292;28;20059;-82
2022/03/02 05:58:53;;;;;;;21.85;13.88;;;4.80;64.40;;;;;;5036465;28;20087;-82
2022/03/02 06:01:19;;;;;;;19.50;13.02;;;4.80;64.00;;;;;;5036183;28;20030;-82
2022/03/02 06:03:45;;;;;;;21.25;13.43;;;4.80;63.10;;;;;;5034937;28;20044;-83
2022/03/02 06:06:14;;;;;;;20.40;13.52;;;4.80;63.30;;;;;;5036998;28;20377;-84
2022/03/02 06:08:39;;;;;;;23.40;12.32;;;4.70;63.00;;;;;;5035086;28;20496;-84
2022/03/02 06:11:06;;;;;;;22.13;12.60;;;4.90;63.10;;;;;;5036099;28;20026;-84
2022/03/02 06:13:34;;;;;;;17.30;12.00;;;4.80;62.50;;;;;;5034472;28;20490;-82
2022/03/02 06:16:00;;;;;;;18.05;11.68;;;4.80;62.30;;;;;;5035894;28;20034;-82
2022/03/02 06:18:26;;;;;;;17.48;11.38;;;4.80;62.00;;;;;;5035708;28;20109;-83
2022/03/02 06:20:59;;;;;;;17.80;11.50;;;4.80;61.70;;;;;;5035159;28;20024;-83
2022/03/02 06:23:26;;;;;;;17.63;12.52;;;4.90;62.20;;;;;;5034380;28;20172;-84
2022/03/02 06:25:52;;;;;;;21.98;13.88;;;4.80;62.30;;;;;;5035313;28;20036;-83
2022/03/02 06:28:17;;;;;;;18.30;10.43;;;4.60;62.10;;;;;;5035060;28;20034;-84
2022/03/02 06:30:43;;;;;;;22.95;12.52;;;4.60;62.60;;;;;;5035582;28;20028;-83
2022/03/02 06:33:14;;;;;;;19.60;11.57;;;4.70;61.90;;;;;;5034406;28;20366;-82
2022/03/02 06:35:39;;;;;;;17.60;12.20;;;4.60;62.20;;;;;;5035035;28;20350;-82
2022/03/02 06:38:05;;;;;;;16.98;11.65;;;4.60;62.20;;;;;;5034257;28;20108;-82
2022/03/02 06:40:31;;;;;;;22.48;12.65;;;4.50;62.30;;;;;;5034534;28;20025;-83
2022/03/02 06:43:11;;;;;;;22.70;13.35;;;4.50;62.90;;;;;;5034492;28;20021;-82
2022/03/02 06:45:59;;;;;;;22.40;13.38;;;4.40;62.50;;;;;;5035865;28;20080;-82
2022/03/02 06:48:41;;;;;;;22.40;11.32;;;4.40;63.00;;;;;;5034675;28;20081;-82
2022/03/02 06:51:09;;;;;;;17.85;11.68;;;4.40;62.90;;;;;;5035474;28;20090;-83
2022/03/02 06:53:36;;;;;;;20.80;11.80;;;4.50;62.70;;;;;;5034222;28;20039;-83
2022/03/02 06:56:05;;;;;;;16.65;11.35;;;4.70;62.10;;;;;;5033898;28;20430;-83
2022/03/02 06:58:46;;;;;;;17.25;11.45;;;4.80;60.80;;;;;;5031017;28;20052;-83
2022/03/02 07:01:13;;;;;;;17.20;11.57;;;4.80;61.20;;;;;;5023765;28;20492;-83
2022/03/02 07:03:45;;;;;;;18.55;11.73;;;4.90;60.30;;;;;;5038080;28;20469;-81
2022/03/02 07:06:13;;;;;;;19.98;11.40;;;4.90;60.90;;;;;;5033099;28;20060;-82
2022/03/02 07:08:43;;;;;;;15.05;9.80;;;4.90;60.10;;;;;;5032226;28;20481;-83
2022/03/02 07:11:10;;;;;;;17.27;11.10;;;5.00;59.70;;;;;;5031954;28;20670;-84
2022/03/02 07:13:36;;;;;;;16.08;10.15;;;5.20;59.80;;;;;;5032474;28;20025;-81
2022/03/02 07:16:02;;;;;;;17.02;10.70;;;5.30;58.90;;;;;;5033317;28;20030;-82
2022/03/02 07:18:28;;;;;;;17.13;10.73;;;5.40;59.00;;;;;;5032975;28;20339;-81
2022/03/02 07:20:57;;;;;;;18.90;9.50;;;5.40;57.90;;;;;;5037850;28;20040;-82
2022/03/02 07:23:25;;;;;;;14.73;9.65;;;5.60;58.10;;;;;;5034062;28;20116;-83
2022/03/02 07:25:55;;;;;;;16.13;10.88;;;5.60;56.10;;;;;;5038013;28;20132;-82
2022/03/02 07:28:22;;;;;;;11.85;9.05;;;5.70;56.50;;;;;;5029465;28;20057;-85
2022/03/02 07:30:48;;;;;;;13.63;9.02;;;5.80;57.40;;;;;;5033918;28;20024;-85
2022/03/02 07:33:15;;;;;;;12.82;8.60;;;5.90;56.10;;;;;;5033539;28;20030;-87
2022/03/02 07:35:48;;;;;;;14.32;8.80;;;6.00;54.20;;;;;;5033357;28;20034;-85
2022/03/02 07:38:14;;;;;;;90.35;63.47;;;6.00;54.60;;;;;;5034907;28;20029;-83
2022/03/02 07:40:39;;;;;;;67.43;42.97;;;6.20;54.90;;;;;;5034709;28;20026;-86
2022/03/02 07:43:05;;;;;;;46.47;24.48;;;6.30;55.40;;;;;;5034741;28;20092;-87
2022/03/02 07:45:31;;;;;;;15.05;9.18;;;6.50;53.70;;;;;;5033971;28;20033;-85
2022/03/02 07:47:57;;;;;;;12.73;8.10;;;6.50;53.50;;;;;;5033912;28;20038;-84
2022/03/02 07:50:23;;;;;;;12.73;8.40;;;6.50;53.90;;;;;;5037665;28;20029;-84
2022/03/02 07:52:53;;;;;;;13.88;8.90;;;6.60;52.30;;;;;;5044614;28;20078;-84
2022/03/02 07:55:19;;;;;;;;;;;6.60;52.90;;;;;;5041080;28;20056;-84
2022/03/02 07:57:53;;;;;;;11.30;7.82;;;6.70;52.40;;;;;;5034116;28;19916;-84
2022/03/02 08:00:18;;;;;;;9.77;6.60;;;6.80;51.70;;;;;;5031516;28;20034;-83
2022/03/02 08:02:47;;;;;;;17.33;7.72;;;6.90;53.80;;;;;;5033120;28;20075;-82
2022/03/02 08:05:14;;;;;;;13.80;7.55;;;7.00;52.50;;;;;;5030986;28;20037;-81
2022/03/02 08:07:40;;;;;;;11.27;7.38;;;7.10;52.50;;;;;;5031858;28;20108;-81
2022/03/02 08:10:07;;;;;;;12.93;7.25;;;7.20;52.30;;;;;;5031483;28;20120;-80
2022/03/02 08:12:33;;;;;;;12.07;7.30;;;7.30;51.40;;;;;;5042635;28;20033;-80
2022/03/02 08:15:00;;;;;;;12.82;6.80;;;7.40;52.20;;;;;;5036887;28;20021;-82
2022/03/02 08:17:25;;;;;;;9.10;6.60;;;7.50;52.30;;;;;;5032932;28;20052;-82
2022/03/02 08:19:52;;;;;;;9.52;6.50;;;7.60;52.00;;;;;;5032849;28;20025;-82
2022/03/02 08:22:23;;;;;;;8.65;6.78;;;7.70;52.50;;;;;;5048005;28;20423;-80
2022/03/02 08:25:00;;;;;;;9.27;6.20;;;7.90;51.40;;;;;;5033037;28;20029;-79
2022/03/02 08:27:29;;;;;;;12.48;6.63;;;8.00;50.40;;;;;;5032652;28;20040;-83
2022/03/02 08:29:56;;;;;;;11.57;7.30;;;8.00;50.20;;;;;;5030293;28;20068;-79
2022/03/02 08:32:23;;;;;;;8.23;6.20;;;8.10;50.70;;;;;;5039693;28;20025;-81
2022/03/02 08:34:50;;;;;;;8.93;6.70;;;8.20;50.50;;;;;;5032036;28;20021;-83
2022/03/02 08:37:19;;;;;;;12.40;7.93;;;8.10;51.10;;;;;;5033623;28;20034;-82
2022/03/02 08:39:47;;;;;;;10.75;6.97;;;8.20;50.20;;;;;;5032430;28;20033;-82
2022/03/02 08:42:13;;;;;;;11.95;8.05;;;8.40;50.60;;;;;;5032260;28;20030;-84
2022/03/02 08:44:39;;;;;;;9.95;7.15;;;8.50;50.20;;;;;;5032411;28;20043;-84
2022/03/02 08:47:06;;;;;;;9.30;7.15;;;8.50;50.80;;;;;;5031540;28;20080;-80
2022/03/02 08:49:32;;;;;;;10.05;6.88;;;8.60;52.80;;;;;;5031961;28;20485;-83
2022/03/02 08:51:58;;;;;;;11.85;7.57;;;8.80;51.80;;;;;;5031130;28;20026;-83
2022/03/02 08:54:27;;;;;;;11.50;6.78;;;8.90;53.10;;;;;;5028593;28;20397;-84
2022/03/02 08:56:53;;;;;;;10.18;7.50;;;9.10;53.00;;;;;;5029899;28;20088;-84
2022/03/02 08:59:20;;;;;;;9.85;7.80;;;9.20;52.10;;;;;;5030262;28;20029;-87
2022/03/02 09:01:51;;;;;;;13.27;8.73;;;9.30;52.30;;;;;;5031233;28;20099;-86
2022/03/02 09:04:18;;;;;;;13.45;8.15;;;9.40;51.40;;;;;;5034037;28;20064;-85
2022/03/02 09:06:45;;;;;;;13.73;8.93;;;9.40;51.90;;;;;;5045216;28;20413;-86
2022/03/02 09:09:11;;;;;;;10.80;7.72;;;9.40;51.90;;;;;;5032792;28;20056;-86
2022/03/02 09:11:41;;;;;;;11.07;7.60;;;9.50;51.80;;;;;;5032513;28;20030;-87
2022/03/02 09:14:07;;;;;;;12.30;7.75;;;9.70;52.30;;;;;;5033880;28;20101;-86
2022/03/02 09:16:34;;;;;;;9.25;6.93;;;9.90;51.50;;;;;;5032361;28;20053;-86
2022/03/02 09:18:59;;;;;;;10.80;7.75;;;10.10;51.30;;;;;;5032026;28;20029;-86
2022/03/02 09:21:26;;;;;;;9.65;7.05;;;10.30;51.30;;;;;;5031536;28;20090;-86
2022/03/02 09:23:55;;;;;;;9.93;7.22;;;10.40;50.60;;;;;;5033475;28;20038;-86
2022/03/02 09:26:21;;;;;;;12.50;7.30;;;10.60;50.90;;;;;;5046558;28;20029;-86
2022/03/02 09:28:52;;;;;;;12.68;7.20;;;10.80;50.50;;;;;;5035244;28;20547;-85
2022/03/02 09:31:21;;;;;;;13.00;7.82;;;11.00;50.30;;;;;;5036266;28;20026;-85
2022/03/02 09:33:56;;;;;;;10.77;7.82;;;11.10;49.60;;;;;;5034782;28;20039;-86
2022/03/02 09:36:24;;;;;;;11.70;8.52;;;11.40;50.00;;;;;;5036612;28;20037;-85
2022/03/02 09:38:51;;;;;;;11.05;8.52;;;11.50;50.70;;;;;;5034379;28;20037;-85
2022/03/02 09:41:40;;;;;;;12.65;8.77;;;11.70;51.10;;;;;;5035387;28;20041;-85
2022/03/02 09:44:06;;;;;;;9.45;7.90;;;11.80;51.10;;;;;;5029787;28;20083;-85
2022/03/02 09:46:35;;;;;;;11.02;7.70;;;11.80;50.70;;;;;;5035146;28;20037;-86
2022/03/02 09:49:12;;;;;;;10.95;8.52;;;11.90;50.90;;;;;;5035299;28;20084;-85
2022/03/02 09:51:39;;;;;;;10.57;8.30;;;12.00;50.30;;;;;;5023764;28;20032;-85
2022/03/02 09:54:06;;;;;;;17.13;10.30;;;12.20;50.30;;;;;;5035836;28;20014;-85
2022/03/02 09:56:35;;;;;;;12.02;9.30;;;12.20;50.90;;;;;;5035878;28;20097;-85
2022/03/02 09:59:06;;;;;;;15.55;10.90;;;12.30;50.60;;;;;;5035321;28;20120;-85
2022/03/02 10:01:34;;;;;;;12.10;9.27;;;12.50;50.90;;;;;;5036431;28;20042;-86
2022/03/02 10:04:13;;;;;;;13.05;9.93;;;12.60;50.50;;;;;;5036371;28;20112;-85
2022/03/02 10:06:42;;;;;;;13.75;8.85;;;12.50;50.70;;;;;;5034810;28;20470;-86
2022/03/02 10:09:09;;;;;;;12.25;9.00;;;12.50;50.40;;;;;;5034390;28;20036;-85
2022/03/02 10:11:39;;;;;;;13.30;9.88;;;12.70;50.60;;;;;;5034762;28;20038;-87
2022/03/02 10:14:04;;;;;;;12.02;9.35;;;12.80;50.20;;;;;;5034230;28;20017;-85
2022/03/02 10:16:35;;;;;;;13.48;10.88;;;12.90;50.10;;;;;;5034659;28;20131;-84
2022/03/02 10:19:02;;;;;;;;;;;13.00;49.70;;;;;;5034183;28;20034;-84
2022/03/02 10:21:31;;;;;;;191.55;110.32;;;13.20;51.10;;;;;;5034426;28;19905;-85
2022/03/02 10:24:00;;;;;;;28.25;22.35;;;13.20;52.80;;;;;;5034429;28;20083;-85
2022/03/02 10:26:28;;;;;;;18.45;13.75;;;13.40;51.90;;;;;;5033810;28;20473;-84
2022/03/02 10:29:06;;;;;;;14.52;12.25;;;13.60;52.20;;;;;;5039352;28;20041;-85
2022/03/02 10:31:45;;;;;;;14.15;11.93;;;13.80;51.20;;;;;;5030433;28;20048;-85
2022/03/02 10:34:28;;;;;;;18.70;13.57;;;13.90;51.10;;;;;;5033969;28;20083;-85
2022/03/02 10:37:03;;;;;;;17.58;12.10;;;13.90;50.60;;;;;;5034726;28;20025;-85
2022/03/02 10:39:47;;;;;;;15.40;12.38;;;13.80;51.60;;;;;;5034100;28;20034;-86
2022/03/02 10:42:28;;;;;;;15.40;13.02;;;14.00;51.50;;;;;;5049315;28;20478;-85
2022/03/02 10:45:18;;;;;;;17.42;14.05;;;14.20;51.40;;;;;;5027281;28;20037;-84
2022/03/02 10:47:53;;;;;;;17.52;14.02;;;14.30;50.10;;;;;;5033347;28;20055;-85
2022/03/02 10:50:21;;;;;;;17.55;15.27;;;14.10;49.50;;;;;;5033278;28;20040;-85
2022/03/02 10:52:48;;;;;;;17.48;12.93;;;14.10;50.30;;;;;;5047829;28;20101;-85
2022/03/02 10:55:14;;;;;;;16.92;13.63;;;14.20;50.70;;;;;;5034996;28;20060;-85
2022/03/02 10:57:40;;;;;;;17.77;13.93;;;14.40;49.50;;;;;;5034792;28;20026;-86
2022/03/02 11:00:14;;;;;;;19.42;14.10;;;14.50;49.50;;;;;;5035829;28;20041;-86
2022/03/02 11:02:46;;;;;;;16.65;12.63;;;14.60;49.30;;;;;;5034527;28;20026;-85
2022/03/02 11:05:18;;;;;;;20.60;13.38;;;14.70;48.20;;;;;;5034468;28;20037;-86
2022/03/02 11:07:45;;;;;;;16.90;13.40;;;14.80;48.70;;;;;;5036215;28;20044;-85
2022/03/02 11:10:14;;;;;;;14.88;12.07;;;14.70;47.90;;;;;;5035772;28;20037;-87
2022/03/02 11:12:42;;;;;;;24.48;14.50;;;14.90;48.60;;;;;;5035265;28;20025;-86
2022/03/02 11:15:09;;;;;;;17.02;14.95;;;15.00;46.50;;;;;;5034648;28;20389;-86
2022/03/02 11:17:39;;;;;;;20.60;13.55;;;15.00;42.60;;;;;;5034455;28;20036;-85
2022/03/02 11:20:09;;;;;;;16.40;13.55;;;14.90;43.90;;;;;;5034803;28;20064;-87
2022/03/02 11:22:36;;;;;;;18.00;13.27;;;15.10;44.80;;;;;;5041571;28;20377;-85
2022/03/02 11:25:03;;;;;;;15.55;12.55;;;15.10;44.60;;;;;;5035730;28;20032;-90
2022/03/02 11:27:41;;;;;;;14.43;12.90;;;15.20;44.10;;;;;;5037593;28;20043;-89
2022/03/02 11:30:14;;;;;;;18.75;14.63;;;15.10;42.80;;;;;;5037218;28;20033;-90
2022/03/02 11:32:47;;;;;;;16.92;12.90;;;15.10;43.50;;;;;;5035918;28;20045;-90
2022/03/02 11:35:17;;;;;;;14.95;11.68;;;15.20;43.80;;;;;;5046256;28;20103;-90
2022/03/02 11:37:43;;;;;;;16.20;12.75;;;15.50;44.90;;;;;;5049274;28;20023;-90
2022/03/02 11:40:13;;;;;;;15.90;12.43;;;15.70;42.50;;;;;;5036711;28;20033;-90
2022/03/02 11:42:42;;;;;;;17.50;12.60;;;15.70;44.00;;;;;;5036046;28;20033;-90
2022/03/02 11:45:10;;;;;;;15.55;13.05;;;15.70;43.10;;;;;;5035496;28;20025;-90
2022/03/02 11:47:45;;;;;;;16.52;13.80;;;15.90;43.70;;;;;;5035936;28;20095;-90
2022/03/02 11:50:12;;;;;;;16.33;12.35;;;16.10;42.30;;;;;;5034164;28;20063;-90
2022/03/02 11:52:47;;;;;;;14.82;12.32;;;16.50;41.40;;;;;;5035576;28;20017;-84
2022/03/02 11:55:19;;;;;;;16.10;12.90;;;16.50;41.80;;;;;;5032651;28;20124;-85
2022/03/02 11:57:48;;;;;;;19.40;13.70;;;17.00;41.50;;;;;;5048815;28;20036;-86
2022/03/02 12:00:16;;;;;;;16.55;12.82;;;17.30;40.00;;;;;;5037215;28;21182;-86
2022/03/02 12:02:49;;;;;;;18.60;14.48;;;17.40;40.40;;;;;;5045262;28;20035;-83
2022/03/02 12:05:18;;;;;;;17.58;13.32;;;18.00;38.00;;;;;;5037323;28;20033;-83
2022/03/02 12:07:51;;;;;;;16.55;13.57;;;18.10;38.00;;;;;;5049268;28;20083;-83
2022/03/02 12:10:33;;;;;;;16.42;13.52;;;18.20;37.50;;;;;;5032147;28;20029;-83
2022/03/02 12:12:59;;;;;;;18.08;12.23;;;18.50;38.40;;;;;;5045102;28;20518;-84
2022/03/02 12:15:26;;;;;;;20.88;15.15;;;18.60;38.20;;;;;;5049115;28;20096;-83
2022/03/02 12:18:06;;;;;;;15.85;14.10;;;18.40;36.90;;;;;;5021291;28;20021;-84
2022/03/02 12:20:34;;;;;;;18.45;13.57;;;17.60;38.70;;;;;;5044354;28;20023;-84
2022/03/02 12:23:00;;;;;;;18.60;13.13;;;18.40;37.90;;;;;;5034894;28;20032;-87
2022/03/02 12:25:27;;;;;;;16.15;13.73;;;18.90;37.10;;;;;;5042221;28;20442;-83
2022/03/02 12:28:04;;;;;;;23.67;14.80;;;19.20;36.90;;;;;;5048601;28;20021;-84
2022/03/02 12:30:32;;;;;;;21.33;14.13;;;18.70;35.80;;;;;;5014146;28;20084;-87
2022/03/02 12:32:59;;;;;;;17.40;15.60;;;17.80;37.60;;;;;;5013568;28;20439;-86
2022/03/02 12:35:26;;;;;;;20.70;14.57;;;16.90;38.50;;;;;;5011794;28;20026;-86
2022/03/02 12:37:53;;;;;;;18.77;14.38;;;16.80;39.80;;;;;;5023213;28;20031;-86
2022/03/02 12:40:20;;;;;;;19.42;13.25;;;17.60;39.20;;;;;;5029709;28;20393;-84
2022/03/02 12:42:47;;;;;;;82.65;73.68;;;18.10;37.70;;;;;;5031931;28;20108;-85